Time;durP1;ratioP1;P1;durP2;ratioP2;P2;SDS_P1;SDS_P2;PMS_P1;PMS_P2;Temp;Humidity;BMP_temperature;BMP_pressure;BME280_temperature;BME280_humidity;BME280_pressure;Samples;Min_cycle;Max_cycle;Signal;HPM_P1;HPM_P2
2022/08/24 00:00:05;;;;;;;2.40;1.00;;;25.10;59.40;;;;;;6097642;23;20050;-67
2022/08/24 00:02:31;;;;;;;1.83;0.98;;;25.00;59.80;;;;;;6098364;23;20115;-67
2022/08/24 00:04:57;;;;;;;2.92;0.80;;;25.00;59.80;;;;;;6098556;23;20012;-67
2022/08/24 00:07:22;;;;;;;2.97;0.70;;;25.00;59.80;;;;;;6098235;23;20002;-67
2022/08/24 00:09:48;;;;;;;3.85;1.10;;;25.00;60.00;;;;;;6097911;23;20070;-67
2022/08/24 00:12:14;;;;;;;1.77;0.90;;;25.00;60.10;;;;;;6098000;23;20007;-67
2022/08/24 00:14:41;;;;;;;3.58;0.93;;;25.00;60.30;;;;;;6097798;23;20002;-67
2022/08/24 00:17:07;;;;;;;4.60;1.00;;;24.90;60.30;;;;;;6098319;23;20011;-66
2022/08/24 00:19:33;;;;;;;2.30;0.80;;;24.90;60.30;;;;;;6098221;23;20078;-67
2022/08/24 00:21:59;;;;;;;1.85;0.95;;;24.90;60.40;;;;;;6097927;23;20069;-66
2022/08/24 00:24:25;;;;;;;2.15;0.95;;;24.90;60.30;;;;;;6097832;23;20046;-67
2022/08/24 00:26:52;;;;;;;2.38;1.00;;;24.80;60.20;;;;;;6097937;23;20030;-67
2022/08/24 00:29:19;;;;;;;3.58;0.90;;;24.80;60.70;;;;;;6097731;23;20054;-67
2022/08/24 00:31:45;;;;;;;1.23;0.70;;;24.80;59.80;;;;;;6097795;23;20015;-66
2022/08/24 00:34:12;;;;;;;2.20;0.80;;;24.80;59.30;;;;;;6097735;23;19998;-66
2022/08/24 00:36:39;;;;;;;2.90;0.90;;;24.80;58.80;;;;;;6097475;23;20012;-66
2022/08/24 00:39:06;;;;;;;1.42;0.80;;;24.80;58.80;;;;;;6097851;23;20014;-67
2022/08/24 00:41:33;;;;;;;1.58;0.68;;;24.70;58.80;;;;;;6097839;23;20310;-67
2022/08/24 00:44:03;;;;;;;0.95;0.50;;;24.70;58.80;;;;;;6097589;23;20426;-67
2022/08/24 00:46:53;;;;;;;0.80;0.60;;;24.70;58.90;;;;;;6097571;23;20002;-66
2022/08/24 00:49:37;;;;;;;1.58;0.70;;;24.70;58.90;;;;;;6097775;23;20006;-67
2022/08/24 00:52:20;;;;;;;2.28;0.70;;;24.70;59.00;;;;;;6097705;23;20069;-67
2022/08/24 00:54:51;;;;;;;1.25;0.77;;;24.60;59.10;;;;;;6097528;23;20019;-67
2022/08/24 00:57:21;;;;;;;1.90;0.50;;;24.60;59.40;;;;;;6097963;23;20059;-67
2022/08/24 00:59:54;;;;;;;2.15;0.80;;;24.60;59.60;;;;;;6097308;23;20022;-67
2022/08/24 01:02:25;;;;;;;1.33;0.77;;;24.60;59.70;;;;;;6097183;23;20069;-67
2022/08/24 01:05:00;;;;;;;1.33;0.80;;;24.60;59.70;;;;;;6097820;23;20036;-67
2022/08/24 01:07:28;;;;;;;2.10;0.77;;;24.50;59.80;;;;;;6097489;23;20070;-67
2022/08/24 01:09:58;;;;;;;2.05;0.90;;;24.60;60.00;;;;;;6097686;23;20007;-67
2022/08/24 01:12:28;;;;;;;1.00;0.60;;;24.50;60.10;;;;;;6097458;23;20010;-66
2022/08/24 01:14:56;;;;;;;2.97;0.60;;;24.50;60.40;;;;;;6097490;23;20010;-67
2022/08/24 01:20:09;;;;;;;2.05;0.70;;;24.50;60.60;;;;;;6097483;23;20053;-67
2022/08/24 01:23:03;;;;;;;2.75;0.80;;;24.40;60.60;;;;;;6097662;23;20018;-66
2022/08/24 01:25:32;;;;;;;0.88;0.70;;;24.40;60.60;;;;;;6097382;23;20002;-67
2022/08/24 01:28:02;;;;;;;2.25;0.70;;;24.40;60.80;;;;;;6097320;23;20006;-67
2022/08/24 01:30:28;;;;;;;2.80;0.70;;;24.40;61.10;;;;;;6097139;23;20013;-67
2022/08/24 01:33:01;;;;;;;2.65;0.73;;;24.40;61.10;;;;;;6097405;23;20302;-67
2022/08/24 01:35:29;;;;;;;0.73;0.70;;;24.30;61.20;;;;;;6097111;23;20421;-67
2022/08/24 01:37:59;;;;;;;0.88;0.80;;;24.30;61.30;;;;;;6096955;23;20007;-67
2022/08/24 01:40:36;;;;;;;1.45;0.65;;;24.30;61.60;;;;;;6097191;23;20002;-67
2022/08/24 01:43:04;;;;;;;1.20;0.80;;;24.30;61.50;;;;;;6097134;23;20010;-67
2022/08/24 01:45:30;;;;;;;2.28;0.77;;;24.30;61.60;;;;;;6097060;23;20085;-66
2022/08/24 01:47:57;;;;;;;3.33;0.70;;;24.20;61.50;;;;;;6097367;23;20041;-67
2022/08/24 01:50:23;;;;;;;2.47;0.90;;;24.30;61.80;;;;;;6097472;23;20002;-67
2022/08/24 01:52:51;;;;;;;4.25;1.10;;;24.20;61.60;;;;;;6097600;23;20334;-66
2022/08/24 01:55:17;;;;;;;3.80;1.00;;;24.20;61.90;;;;;;6097058;23;20373;-67
2022/08/24 01:57:43;;;;;;;3.92;0.80;;;24.10;61.90;;;;;;6097194;23;20002;-67
2022/08/24 02:00:13;;;;;;;2.25;1.10;;;24.10;62.20;;;;;;6096900;23;20473;-67
2022/08/24 02:02:40;;;;;;;4.15;1.08;;;24.10;62.30;;;;;;6097259;23;20074;-67
2022/08/24 02:05:07;;;;;;;3.85;1.00;;;24.10;62.60;;;;;;6097008;23;20434;-67
2022/08/24 02:07:32;;;;;;;4.65;1.67;;;24.10;62.80;;;;;;6096686;23;20489;-67
2022/08/24 02:09:58;;;;;;;0.73;0.70;;;24.00;62.90;;;;;;6097111;23;20037;-67
2022/08/24 02:12:24;;;;;;;2.83;1.27;;;24.00;63.00;;;;;;6097364;23;20303;-66
2022/08/24 02:14:50;;;;;;;4.95;1.00;;;24.00;63.10;;;;;;6096933;23;20002;-67
2022/08/24 02:17:17;;;;;;;2.38;0.90;;;24.00;63.10;;;;;;6096906;23;20034;-67
2022/08/24 02:19:43;;;;;;;5.18;1.30;;;23.90;63.10;;;;;;6097131;23;20026;-67
2022/08/24 02:22:09;;;;;;;4.68;0.90;;;23.90;63.10;;;;;;6097063;23;20315;-67
2022/08/24 02:24:35;;;;;;;2.40;1.10;;;23.90;63.20;;;;;;6097291;23;20007;-67
2022/08/24 02:27:01;;;;;;;1.10;0.90;;;23.90;63.20;;;;;;6096966;23;20029;-67
2022/08/24 02:29:27;;;;;;;3.65;1.00;;;23.80;63.20;;;;;;6096838;23;20021;-67
2022/08/24 02:31:53;;;;;;;4.47;1.10;;;23.80;63.30;;;;;;6097123;23;20003;-67
2022/08/24 02:34:18;;;;;;;1.92;1.05;;;23.80;63.60;;;;;;6096821;23;20429;-66
2022/08/24 02:36:44;;;;;;;2.42;1.20;;;23.80;63.80;;;;;;6097498;23;20002;-67
2022/08/24 02:39:10;;;;;;;3.85;1.05;;;23.70;63.70;;;;;;6096970;23;20045;-66
2022/08/24 02:41:36;;;;;;;3.92;1.20;;;23.70;63.90;;;;;;6097248;23;20050;-66
2022/08/24 02:44:02;;;;;;;3.20;1.83;;;23.60;63.90;;;;;;6096474;23;20438;-67
2022/08/24 02:46:29;;;;;;;4.78;1.15;;;23.60;64.00;;;;;;6096681;23;20077;-67
2022/08/24 02:48:58;;;;;;;5.18;1.08;;;23.60;64.20;;;;;;6096821;23;20009;-66
2022/08/24 02:51:29;;;;;;;3.05;0.90;;;23.60;64.30;;;;;;6097132;23;20033;-66
2022/08/24 02:53:57;;;;;;;2.08;0.82;;;23.60;64.60;;;;;;6096736;23;20009;-66
2022/08/24 02:56:22;;;;;;;6.07;1.10;;;23.50;64.50;;;;;;6097087;23;20329;-66
2022/08/24 02:58:48;;;;;;;2.75;1.13;;;23.50;64.50;;;;;;6096599;23;20025;-67
2022/08/24 03:01:16;;;;;;;2.63;0.85;;;23.50;64.40;;;;;;6096743;23;19999;-66
2022/08/24 03:03:42;;;;;;;3.75;1.00;;;23.50;64.40;;;;;;6097124;23;20338;-66
2022/08/24 03:06:09;;;;;;;2.70;1.20;;;23.50;64.60;;;;;;6096855;23;20006;-67
2022/08/24 03:08:35;;;;;;;3.85;1.00;;;23.40;64.70;;;;;;6096883;23;20002;-67
2022/08/24 03:11:02;;;;;;;2.80;1.02;;;23.40;64.70;;;;;;6096769;23;20120;-67
2022/08/24 03:13:29;;;;;;;1.80;1.30;;;23.40;64.90;;;;;;6096614;23;20333;-66
2022/08/24 03:15:56;;;;;;;4.03;1.10;;;23.40;64.80;;;;;;6096647;23;20417;-67
2022/08/24 03:18:24;;;;;;;4.28;1.20;;;23.40;64.70;;;;;;6098307;23;20022;-67
2022/08/24 03:20:51;;;;;;;2.50;0.90;;;23.30;64.30;;;;;;6098819;23;20333;-67
2022/08/24 03:23:17;;;;;;;4.75;1.15;;;23.30;63.80;;;;;;6098418;23;20026;-67
2022/08/24 03:25:43;;;;;;;5.55;1.13;;;23.30;63.90;;;;;;6098447;23;19999;-66
2022/08/24 03:28:10;;;;;;;2.88;0.98;;;23.30;63.80;;;;;;6098386;23;20014;-67
2022/08/24 03:30:37;;;;;;;3.35;1.20;;;23.30;63.90;;;;;;6098159;23;20003;-67
2022/08/24 03:33:04;;;;;;;3.40;0.90;;;23.30;64.00;;;;;;6098791;23;20089;-66
2022/08/24 03:35:29;;;;;;;2.22;0.95;;;23.30;63.80;;;;;;6098579;23;20003;-66
2022/08/24 03:37:55;;;;;;;6.43;1.92;;;23.30;64.00;;;;;;6098293;23;20085;-66
2022/08/24 03:40:22;;;;;;;3.00;0.90;;;23.20;64.00;;;;;;6098363;23;20061;-66
2022/08/24 03:42:48;;;;;;;4.43;0.90;;;23.20;63.80;;;;;;6098273;23;20006;-66
2022/08/24 03:45:14;;;;;;;3.90;1.10;;;23.20;63.90;;;;;;6098037;23;20009;-67
2022/08/24 03:47:40;;;;;;;3.47;0.90;;;23.20;64.60;;;;;;6098233;23;20002;-68
2022/08/24 03:50:08;;;;;;;3.00;1.30;;;23.20;64.00;;;;;;6098284;23;20037;-67
2022/08/24 03:52:34;;;;;;;2.58;0.98;;;23.20;63.90;;;;;;6098324;23;20002;-66
2022/08/24 03:55:04;;;;;;;3.03;0.90;;;23.20;64.00;;;;;;6098265;23;20460;-67
2022/08/24 03:57:30;;;;;;;2.85;1.00;;;23.10;64.20;;;;;;6098013;23;20010;-67
2022/08/24 03:59:56;;;;;;;3.33;1.13;;;23.10;64.80;;;;;;6097989;23;20055;-67
2022/08/24 04:02:21;;;;;;;1.88;1.05;;;23.20;65.20;;;;;;6098244;23;20009;-67
2022/08/24 04:04:47;;;;;;;0.80;0.80;;;23.10;65.30;;;;;;6098385;23;20018;-67
2022/08/24 04:07:13;;;;;;;1.88;1.20;;;23.10;65.90;;;;;;6097843;23;20050;-67
2022/08/24 04:09:38;;;;;;;2.63;1.00;;;23.00;65.40;;;;;;6098124;23;20429;-67
2022/08/24 04:12:04;;;;;;;3.80;1.02;;;23.00;65.50;;;;;;6098331;23;20341;-67
2022/08/24 04:14:30;;;;;;;3.05;1.00;;;23.00;65.80;;;;;;6097953;23;20077;-67
2022/08/24 04:16:56;;;;;;;2.85;1.00;;;23.00;65.70;;;;;;6098535;23;20038;-66
2022/08/24 04:19:21;;;;;;;3.65;0.90;;;23.00;65.80;;;;;;6098190;23;20022;-66
2022/08/24 04:21:47;;;;;;;4.15;1.10;;;22.90;65.90;;;;;;6097830;23;20334;-66
2022/08/24 04:24:13;;;;;;;3.30;1.10;;;22.90;66.10;;;;;;6098148;23;20077;-66
2022/08/24 04:26:40;;;;;;;4.05;1.00;;;22.90;66.10;;;;;;6097937;23;20393;-67
2022/08/24 04:29:10;;;;;;;2.08;0.93;;;22.90;66.00;;;;;;6097787;23;20010;-67
2022/08/24 04:31:38;;;;;;;3.08;0.90;;;22.90;66.00;;;;;;6098154;23;20368;-67
2022/08/24 04:34:05;;;;;;;4.00;0.95;;;22.90;66.00;;;;;;6098042;23;20014;-66
2022/08/24 04:36:31;;;;;;;2.65;0.85;;;22.80;65.90;;;;;;6097883;23;20303;-66
2022/08/24 04:38:57;;;;;;;3.55;0.73;;;22.80;65.90;;;;;;6097808;23;20017;-66
2022/08/24 04:41:23;;;;;;;1.52;0.85;;;22.80;65.90;;;;;;6097883;23;20011;-67
2022/08/24 04:43:49;;;;;;;2.45;0.90;;;22.80;65.70;;;;;;6097687;23;20037;-66
2022/08/24 04:46:17;;;;;;;2.00;0.82;;;22.80;65.80;;;;;;6097790;23;20017;-66
2022/08/24 04:48:44;;;;;;;1.73;1.02;;;22.80;65.70;;;;;;6097739;23;20002;-67
2022/08/24 04:51:11;;;;;;;2.25;0.90;;;22.80;65.70;;;;;;6097995;23;20456;-66
2022/08/24 04:53:38;;;;;;;1.35;0.90;;;22.80;65.60;;;;;;6097827;23;20014;-66
2022/08/24 04:56:20;;;;;;;2.67;1.00;;;22.80;65.60;;;;;;6097327;23;20004;-66
2022/08/24 04:58:46;;;;;;;5.38;1.10;;;22.90;65.80;;;;;;6097389;23;20022;-66
2022/08/24 05:01:18;;;;;;;2.55;1.05;;;22.90;65.90;;;;;;6097914;23;20010;-67
2022/08/24 05:03:49;;;;;;;3.70;1.08;;;22.90;66.10;;;;;;6097456;23;20010;-67
2022/08/24 05:06:16;;;;;;;4.20;1.05;;;22.80;65.90;;;;;;6097592;23;20006;-66
2022/08/24 05:08:42;;;;;;;3.92;1.20;;;22.90;65.80;;;;;;6097802;23;20325;-66
2022/08/24 05:11:08;;;;;;;5.18;1.15;;;22.90;65.80;;;;;;6097254;23;19998;-66
2022/08/24 05:13:35;;;;;;;4.00;0.70;;;22.90;65.80;;;;;;6097533;23;20126;-67
2022/08/24 05:16:06;;;;;;;5.13;0.88;;;22.90;65.70;;;;;;6097537;23;20130;-67
2022/08/24 05:18:32;;;;;;;3.67;0.93;;;22.90;65.60;;;;;;6097512;23;20319;-67
2022/08/24 05:20:58;;;;;;;5.38;1.00;;;22.90;65.60;;;;;;6097641;23;20013;-67
2022/08/24 05:23:25;;;;;;;4.40;0.90;;;22.90;65.60;;;;;;6097718;23;20011;-66
2022/08/24 05:25:51;;;;;;;2.30;1.00;;;22.90;65.60;;;;;;6097254;23;20363;-66
2022/08/24 05:28:17;;;;;;;4.90;0.90;;;22.90;65.70;;;;;;6097432;23;20003;-67
2022/08/24 05:30:42;;;;;;;2.17;0.80;;;22.90;65.70;;;;;;6097285;23;20302;-67
2022/08/24 05:33:08;;;;;;;2.58;1.35;;;23.00;65.90;;;;;;6097196;23;20002;-66
2022/08/24 05:35:38;;;;;;;6.00;2.00;;;23.00;66.00;;;;;;6096868;23;20005;-67
2022/08/24 05:38:04;;;;;;;3.42;1.20;;;23.00;65.90;;;;;;6097579;23;20330;-66
2022/08/24 05:40:30;;;;;;;3.47;0.95;;;23.00;65.90;;;;;;6097456;23;20018;-67
2022/08/24 05:42:55;;;;;;;2.53;1.00;;;23.00;65.80;;;;;;6097174;23;20002;-67
2022/08/24 05:45:21;;;;;;;3.20;1.00;;;23.10;65.70;;;;;;6097225;23;20085;-67
2022/08/24 05:47:47;;;;;;;2.08;1.10;;;23.10;65.70;;;;;;6097382;23;20418;-67
2022/08/24 05:50:13;;;;;;;5.10;1.20;;;23.10;66.10;;;;;;6097094;23;20430;-66
2022/08/24 05:52:39;;;;;;;3.17;1.27;;;23.10;66.30;;;;;;6097605;23;20341;-66
2022/08/24 05:55:05;;;;;;;2.00;1.30;;;23.20;66.30;;;;;;6097195;23;20007;-67
2022/08/24 05:57:33;;;;;;;2.05;1.00;;;23.20;66.10;;;;;;6096960;23;20002;-66
2022/08/24 06:00:00;;;;;;;7.82;1.90;;;23.20;65.90;;;;;;6096979;23;20022;-66
2022/08/24 06:02:25;;;;;;;4.55;1.35;;;23.20;66.10;;;;;;6097084;23;20010;-67
2022/08/24 06:04:51;;;;;;;5.38;1.20;;;23.20;66.20;;;;;;6097490;23;20018;-66
2022/08/24 06:07:17;;;;;;;3.92;1.17;;;23.20;66.10;;;;;;6097254;23;20010;-66
2022/08/24 06:09:43;;;;;;;5.10;1.23;;;23.20;66.40;;;;;;6097011;23;20438;-66
2022/08/24 06:12:10;;;;;;;5.85;1.10;;;23.20;66.30;;;;;;6097162;23;19999;-67
2022/08/24 06:14:37;;;;;;;2.80;0.90;;;23.30;66.30;;;;;;6096983;23;20007;-66
2022/08/24 06:17:05;;;;;;;6.25;1.00;;;23.30;65.90;;;;;;6097326;23;20010;-67
2022/08/24 06:19:31;;;;;;;4.78;0.90;;;23.40;65.60;;;;;;6096946;23;20014;-66
2022/08/24 06:21:58;;;;;;;5.07;0.85;;;23.40;65.20;;;;;;6096943;23;20457;-65
2022/08/24 06:27:20;;;;;;;3.97;0.90;;;23.40;64.80;;;;;;6043807;23;20453;-67
2022/08/24 06:29:48;;;;;;;5.50;0.93;;;23.50;64.70;;;;;;6097241;23;20015;-67
2022/08/24 06:32:14;;;;;;;1.23;0.60;;;23.50;64.20;;;;;;6097145;23;19998;-67
2022/08/24 06:34:39;;;;;;;3.95;0.82;;;23.50;63.90;;;;;;6096787;23;20003;-66
2022/08/24 06:37:05;;;;;;;1.02;0.82;;;23.50;63.80;;;;;;6096986;23;20337;-66
2022/08/24 06:39:31;;;;;;;3.47;0.80;;;23.60;63.80;;;;;;6096849;23;20017;-67
2022/08/24 06:41:57;;;;;;;2.90;1.20;;;23.60;63.60;;;;;;6096975;23;19999;-66
2022/08/24 06:44:22;;;;;;;1.23;0.70;;;23.60;63.20;;;;;;6096740;23;20337;-67
2022/08/24 06:46:48;;;;;;;4.53;1.10;;;23.60;63.00;;;;;;6097022;23;19999;-66
2022/08/24 06:49:14;;;;;;;3.85;0.90;;;23.70;62.70;;;;;;6097157;23;20010;-67
2022/08/24 06:51:40;;;;;;;1.63;0.95;;;23.80;62.80;;;;;;6096979;23;20009;-67
2022/08/24 06:54:05;;;;;;;4.95;1.23;;;23.80;62.50;;;;;;6098884;23;20014;-67
2022/08/24 06:56:31;;;;;;;4.07;1.38;;;23.80;61.80;;;;;;6098961;23;20025;-67
2022/08/24 06:59:02;;;;;;;4.63;1.55;;;23.90;61.40;;;;;;6098493;23;20027;-67
2022/08/24 07:01:27;;;;;;;6.53;0.82;;;24.00;61.80;;;;;;6098750;23;20421;-66
2022/08/24 07:03:53;;;;;;;3.53;1.35;;;24.00;61.50;;;;;;6099177;23;20087;-67
2022/08/24 07:06:20;;;;;;;4.75;0.80;;;24.00;60.50;;;;;;6099135;23;20015;-67
2022/08/24 07:08:46;;;;;;;3.13;0.90;;;24.00;60.30;;;;;;6098583;23;20073;-66
2022/08/24 07:11:14;;;;;;;2.78;0.90;;;24.10;61.20;;;;;;6098776;23;20006;-67
2022/08/24 07:13:40;;;;;;;3.85;1.00;;;24.20;61.50;;;;;;6099026;23;20020;-67
2022/08/24 07:16:06;;;;;;;1.70;0.90;;;24.20;61.60;;;;;;6098915;23;20011;-67
2022/08/24 07:18:32;;;;;;;4.20;0.90;;;24.30;61.40;;;;;;6098315;23;20023;-66
2022/08/24 07:21:01;;;;;;;2.92;0.98;;;24.30;60.70;;;;;;6098839;23;20069;-67
2022/08/24 07:23:27;;;;;;;2.67;0.70;;;24.40;61.10;;;;;;6098653;23;20022;-67
2022/08/24 07:25:52;;;;;;;2.53;0.80;;;24.40;60.80;;;;;;6098529;23;20005;-67
2022/08/24 07:28:18;;;;;;;3.20;1.00;;;24.50;60.40;;;;;;6098594;23;20073;-66
2022/08/24 07:30:45;;;;;;;0.85;0.80;;;24.50;60.10;;;;;;6098255;23;20041;-67
2022/08/24 07:33:11;;;;;;;5.15;0.82;;;24.60;60.30;;;;;;6098758;23;20015;-66
2022/08/24 07:35:37;;;;;;;4.43;0.85;;;24.70;60.10;;;;;;6098320;23;20422;-67
2022/08/24 07:38:05;;;;;;;3.45;0.82;;;24.70;59.60;;;;;;6098470;23;20014;-67
2022/08/24 07:40:31;;;;;;;2.42;0.82;;;24.80;59.20;;;;;;6098414;23;20002;-67
2022/08/24 07:42:57;;;;;;;6.68;0.88;;;24.80;59.20;;;;;;6098541;23;20008;-67
2022/08/24 07:45:24;;;;;;;2.08;0.82;;;24.90;59.10;;;;;;6098581;23;20078;-67
2022/08/24 07:47:49;;;;;;;1.75;0.80;;;24.90;58.60;;;;;;6098257;23;20086;-67
2022/08/24 07:50:17;;;;;;;2.90;0.80;;;25.00;58.60;;;;;;6097984;23;20053;-68
2022/08/24 07:52:44;;;;;;;1.17;0.63;;;25.00;58.50;;;;;;6098201;23;20083;-67
2022/08/24 07:55:10;;;;;;;0.90;0.63;;;25.10;58.40;;;;;;6098234;23;20010;-67
2022/08/24 07:57:38;;;;;;;1.33;0.63;;;25.20;57.70;;;;;;6098096;23;20358;-66
2022/08/24 08:00:06;;;;;;;2.28;0.68;;;25.20;57.20;;;;;;6097813;23;20022;-67
2022/08/24 08:02:32;;;;;;;5.68;1.95;;;25.30;57.20;;;;;;6098441;23;20003;-67
2022/08/24 08:04:58;;;;;;;4.32;0.80;;;25.40;57.30;;;;;;6097431;23;20040;-67
2022/08/24 08:07:24;;;;;;;2.85;0.60;;;25.40;57.20;;;;;;6098249;23;19998;-67
2022/08/24 08:09:51;;;;;;;3.33;0.73;;;25.50;56.60;;;;;;6098034;23;20011;-67
2022/08/24 08:12:18;;;;;;;4.25;0.63;;;25.50;56.30;;;;;;6098122;23;20029;-67
2022/08/24 08:14:44;;;;;;;1.92;0.60;;;25.60;56.20;;;;;;6098196;23;20090;-66
2022/08/24 08:17:11;;;;;;;3.03;0.60;;;25.60;55.80;;;;;;6098021;23;19998;-67
2022/08/24 08:19:37;;;;;;;3.08;0.90;;;25.70;56.50;;;;;;6098022;23;20014;-67
2022/08/24 08:24:47;;;;;;;2.63;0.60;;;25.80;55.70;;;;;;6098012;23;20082;-67
2022/08/24 08:27:16;;;;;;;3.10;0.70;;;25.90;55.10;;;;;;6098242;23;20002;-67
2022/08/24 08:29:43;;;;;;;1.38;0.90;;;25.90;54.80;;;;;;6097902;23;20445;-66
2022/08/24 08:32:19;;;;;;;1.75;0.70;;;25.90;54.80;;;;;;6097873;23;20031;-67
2022/08/24 08:34:45;;;;;;;1.17;0.90;;;25.90;55.00;;;;;;6098100;23;20013;-67
2022/08/24 08:37:12;;;;;;;1.95;0.80;;;26.00;54.60;;;;;;6097685;23;20332;-67
2022/08/24 08:39:39;;;;;;;2.03;0.70;;;26.00;54.50;;;;;;6097681;23;20014;-67
2022/08/24 08:42:20;;;;;;;1.50;0.70;;;25.90;54.40;;;;;;6097873;23;20002;-67
2022/08/24 08:45:08;;;;;;;2.50;0.80;;;26.00;54.50;;;;;;6098092;23;20170;-66
2022/08/24 08:48:33;;;;;;;4.22;0.90;;;26.10;54.40;;;;;;6097550;23;20010;-67
2022/08/24 08:51:23;;;;;;;1.70;0.77;;;26.10;54.40;;;;;;6029419;23;20078;-66
2022/08/24 08:53:55;;;;;;;1.90;0.95;;;26.20;54.20;;;;;;6097634;23;20002;-66
2022/08/24 08:56:57;;;;;;;3.70;0.70;;;26.30;54.30;;;;;;6097547;23;20010;-67
2022/08/24 08:59:41;;;;;;;1.48;0.70;;;26.40;53.20;;;;;;6097442;23;20033;-67
2022/08/24 09:02:19;;;;;;;1.50;0.73;;;26.50;53.20;;;;;;6097559;23;20557;-67
2022/08/24 09:05:03;;;;;;;2.15;0.82;;;26.60;53.30;;;;;;6097685;23;20003;-67
2022/08/24 09:07:47;;;;;;;1.98;0.70;;;26.70;53.10;;;;;;6097448;23;20015;-67
2022/08/24 09:10:31;;;;;;;1.73;0.90;;;26.90;53.00;;;;;;6097328;23;20011;-67
2022/08/24 09:13:34;;;;;;;3.42;0.70;;;27.00;52.90;;;;;;6097316;23;20006;-67
2022/08/24 09:16:24;;;;;;;3.58;0.63;;;27.10;53.00;;;;;;6097561;23;20073;-67
2022/08/24 09:19:10;;;;;;;10.57;1.00;;;27.20;51.60;;;;;;6097972;23;20018;-66
2022/08/24 09:21:51;;;;;;;0.70;0.63;;;27.20;52.00;;;;;;6097668;23;20115;-67
2022/08/24 09:24:48;;;;;;;2.50;0.70;;;27.30;50.80;;;;;;6097103;23;20002;-67
2022/08/24 09:27:40;;;;;;;0.80;0.68;;;27.30;50.70;;;;;;6097448;23;20337;-67
2022/08/24 09:30:17;;;;;;;0.70;0.60;;;27.40;49.90;;;;;;6056639;23;20374;-67
2022/08/24 09:33:01;;;;;;;3.05;0.70;;;27.50;50.30;;;;;;6097631;23;20065;-67
2022/08/24 09:36:01;;;;;;;1.10;0.70;;;27.60;50.70;;;;;;6097308;23;20370;-67
2022/08/24 09:38:48;;;;;;;3.85;0.70;;;27.70;50.40;;;;;;6097135;23;20014;-66
2022/08/24 09:41:17;;;;;;;2.00;0.70;;;27.80;50.50;;;;;;6097282;23;20449;-67
2022/08/24 09:44:01;;;;;;;1.13;0.60;;;27.80;50.40;;;;;;6097056;23;20010;-67
2022/08/24 09:46:59;;;;;;;3.95;0.80;;;27.90;49.70;;;;;;6097223;23;20002;-67
2022/08/24 09:49:46;;;;;;;2.72;0.70;;;28.00;49.40;;;;;;6048568;23;20016;-66
2022/08/24 09:52:43;;;;;;;3.85;0.65;;;28.10;49.80;;;;;;6097018;23;20009;-66
2022/08/24 09:55:30;;;;;;;1.60;0.85;;;28.10;48.90;;;;;;6097380;23;20002;-66
2022/08/24 09:58:29;;;;;;;5.20;0.85;;;28.20;48.70;;;;;;6096678;23;20016;-66
2022/08/24 10:01:05;;;;;;;1.92;0.80;;;28.30;48.70;;;;;;6097174;23;20003;-66
2022/08/24 10:03:47;;;;;;;2.30;0.60;;;28.30;48.40;;;;;;6097274;23;20018;-66
2022/08/24 10:06:25;;;;;;;1.00;0.68;;;28.30;48.70;;;;;;6097155;23;20033;-66
2022/08/24 10:09:05;;;;;;;2.67;0.70;;;28.40;48.80;;;;;;6097094;23;20303;-66
2022/08/24 10:11:54;;;;;;;4.72;0.90;;;28.50;48.40;;;;;;6096720;23;20018;-66
2022/08/24 10:14:36;;;;;;;1.23;0.73;;;28.70;48.50;;;;;;6097052;23;20007;-67
2022/08/24 10:17:14;;;;;;;3.08;0.68;;;28.80;48.30;;;;;;6096962;23;20430;-66
2022/08/24 10:19:52;;;;;;;3.58;0.70;;;28.90;48.20;;;;;;6097194;23;20378;-66
2022/08/24 10:23:00;;;;;;;0.95;0.60;;;28.90;47.80;;;;;;6097076;23;20074;-67
2022/08/24 10:25:35;;;;;;;0.90;0.60;;;29.00;47.50;;;;;;6097093;23;20029;-66
2022/08/24 10:28:28;;;;;;;2.55;0.77;;;29.10;47.90;;;;;;6096796;23;20387;-67
2022/08/24 10:31:13;;;;;;;2.67;0.70;;;29.20;48.10;;;;;;6097095;23;20033;-67
2022/08/24 10:34:09;;;;;;;0.95;0.63;;;29.30;47.90;;;;;;6097061;23;20007;-67
2022/08/24 10:37:06;;;;;;;3.38;0.70;;;29.40;46.90;;;;;;6096831;23;20013;-66
2022/08/24 10:39:54;;;;;;;1.52;0.70;;;29.50;47.30;;;;;;6096977;23;20409;-66
2022/08/24 10:45:31;;;;;;;1.08;0.60;;;29.70;46.20;;;;;;6096981;23;20018;-66
2022/08/24 10:48:15;;;;;;;2.75;0.70;;;29.80;45.90;;;;;;6096833;23;20009;-67
2022/08/24 10:51:08;;;;;;;2.47;0.80;;;29.90;45.80;;;;;;6096764;23;20009;-67
2022/08/24 10:53:34;;;;;;;0.80;0.63;;;29.90;46.10;;;;;;6097124;23;20004;-67
2022/08/24 10:56:13;;;;;;;1.23;0.80;;;30.00;46.50;;;;;;6097004;23;20073;-67
2022/08/24 10:59:16;;;;;;;0.70;0.60;;;30.10;46.40;;;;;;6096321;23;20022;-67
2022/08/24 11:02:15;;;;;;;3.20;0.70;;;30.20;45.20;;;;;;6048388;23;20426;-66
2022/08/24 11:04:43;;;;;;;1.75;0.73;;;30.30;44.60;;;;;;6096587;23;20065;-66
2022/08/24 11:07:17;;;;;;;2.00;0.80;;;30.40;44.60;;;;;;6096806;23;20070;-66
2022/08/24 11:10:10;;;;;;;1.95;0.80;;;30.50;44.80;;;;;;6096647;23;19999;-66
2022/08/24 11:12:41;;;;;;;2.28;0.82;;;30.50;44.20;;;;;;6092367;23;20015;-66
2022/08/24 11:15:10;;;;;;;1.02;0.65;;;30.60;44.60;;;;;;6096990;23;20003;-66
2022/08/24 11:17:36;;;;;;;11.85;0.80;;;30.60;44.10;;;;;;6096587;23;20011;-66
2022/08/24 11:20:02;;;;;;;1.50;0.68;;;30.70;44.70;;;;;;6096720;23;20014;-66
2022/08/24 11:22:35;;;;;;;1.65;0.70;;;30.80;44.90;;;;;;6096580;23;20014;-65
2022/08/24 11:25:09;;;;;;;1.13;0.70;;;30.90;44.80;;;;;;6096928;23;20006;-66
2022/08/24 11:27:42;;;;;;;1.95;0.80;;;31.00;45.00;;;;;;6097024;23;20058;-66
2022/08/24 11:30:18;;;;;;;5.03;0.80;;;31.10;44.70;;;;;;6096451;23;20081;-66
2022/08/24 11:32:52;;;;;;;1.50;0.80;;;31.20;44.50;;;;;;6096660;23;20013;-66
2022/08/24 11:35:20;;;;;;;2.75;1.08;;;31.30;44.40;;;;;;6096696;23;20014;-66
2022/08/24 11:37:48;;;;;;;1.10;0.88;;;31.40;43.80;;;;;;6096720;23;20065;-66
2022/08/24 11:40:15;;;;;;;1.77;0.98;;;31.50;43.80;;;;;;6098238;23;20077;-66
2022/08/24 11:43:17;;;;;;;1.60;0.88;;;31.50;43.40;;;;;;6098918;23;20062;-66
2022/08/24 11:45:55;;;;;;;0.85;0.73;;;31.60;43.30;;;;;;6098186;23;20015;-66
2022/08/24 11:48:46;;;;;;;1.02;0.68;;;31.60;43.70;;;;;;6098196;23;20389;-66
2022/08/24 11:51:34;;;;;;;1.50;0.70;;;31.70;43.90;;;;;;6098089;23;20065;-66
2022/08/24 11:54:44;;;;;;;1.95;0.98;;;31.80;43.90;;;;;;6098284;23;20018;-66
2022/08/24 11:57:27;;;;;;;1.85;0.73;;;31.90;43.50;;;;;;6098206;23;20006;-66
2022/08/24 12:00:06;;;;;;;4.40;0.85;;;31.90;43.40;;;;;;6098165;23;20026;-66
2022/08/24 12:02:40;;;;;;;3.35;1.02;;;32.00;43.00;;;;;;6098557;23;20089;-66
2022/08/24 12:05:30;;;;;;;0.85;0.80;;;32.10;42.80;;;;;;6097999;23;20073;-66
2022/08/24 12:08:08;;;;;;;4.82;0.95;;;32.00;43.10;;;;;;6098059;23;20013;-67
2022/08/24 12:10:46;;;;;;;3.28;0.82;;;31.90;42.50;;;;;;6098230;23;20006;-67
2022/08/24 12:13:37;;;;;;;3.80;0.98;;;31.90;42.70;;;;;;6098367;23;20038;-66
2022/08/24 12:16:27;;;;;;;2.00;0.93;;;31.90;42.50;;;;;;6098297;23;20026;-66
2022/08/24 12:19:07;;;;;;;2.42;0.80;;;31.90;43.40;;;;;;6098062;23;20345;-66
2022/08/24 12:21:37;;;;;;;2.38;0.90;;;32.00;42.70;;;;;;6098104;23;20082;-66
2022/08/24 12:24:12;;;;;;;2.03;0.90;;;32.10;42.90;;;;;;6098283;23;20015;-66
2022/08/24 12:26:44;;;;;;;1.55;0.88;;;32.10;42.20;;;;;;6097847;23;20002;-66
2022/08/24 12:29:20;;;;;;;2.13;0.80;;;32.10;41.50;;;;;;6098025;23;20002;-66
2022/08/24 12:31:53;;;;;;;1.73;0.93;;;32.20;42.30;;;;;;6098092;23;20044;-66
2022/08/24 12:34:52;;;;;;;1.30;0.80;;;32.20;42.60;;;;;;6097726;23;20006;-66
2022/08/24 12:37:24;;;;;;;1.45;0.90;;;32.30;42.80;;;;;;6097951;23;20040;-67
2022/08/24 12:39:57;;;;;;;3.42;0.85;;;32.30;43.20;;;;;;6097959;23;20341;-66
2022/08/24 12:42:38;;;;;;;2.45;0.82;;;32.30;42.40;;;;;;6097969;23;20007;-66
2022/08/24 12:45:11;;;;;;;4.38;1.10;;;32.30;42.20;;;;;;6097610;23;20009;-66
2022/08/24 12:47:45;;;;;;;4.10;1.00;;;32.40;42.30;;;;;;6097560;23;20085;-66
2022/08/24 12:50:36;;;;;;;1.83;0.90;;;32.40;41.80;;;;;;6097157;23;20386;-66
2022/08/24 12:53:32;;;;;;;2.67;0.70;;;32.40;42.10;;;;;;6097647;23;20010;-66
2022/08/24 12:56:26;;;;;;;1.13;0.90;;;32.50;42.30;;;;;;6098116;23;20054;-66
2022/08/24 12:58:57;;;;;;;1.10;0.70;;;32.60;42.40;;;;;;6097341;23;20034;-66
2022/08/24 13:01:24;;;;;;;;;;;32.60;41.70;;;;;;6097766;23;20002;-66
2022/08/24 13:04:22;;;;;;;3.08;1.10;;;32.70;42.10;;;;;;6097678;23;19901;-67
2022/08/24 13:06:57;;;;;;;3.55;1.10;;;32.80;42.10;;;;;;6097876;23;20006;-66
2022/08/24 13:09:52;;;;;;;1.75;0.80;;;32.90;41.90;;;;;;6097614;23;20002;-66
2022/08/24 13:12:32;;;;;;;1.35;0.70;;;32.80;41.50;;;;;;6097637;23;20017;-66
2022/08/24 13:15:22;;;;;;;1.17;1.00;;;32.80;42.00;;;;;;6097452;23;20006;-66
2022/08/24 13:17:57;;;;;;;1.67;1.00;;;32.70;42.00;;;;;;6097511;23;20101;-66
2022/08/24 13:20:34;;;;;;;4.32;1.10;;;32.50;42.40;;;;;;6097621;23;20018;-66
2022/08/24 13:23:12;;;;;;;2.05;1.20;;;32.40;42.70;;;;;;6097729;23;20007;-66
2022/08/24 13:25:48;;;;;;;3.78;1.48;;;32.20;42.00;;;;;;6097104;23;20508;-66